createdAt,value
2023-04-28T00:02:19.698Z,101334.75
2023-04-28T00:04:47.603Z,101333.69
2023-04-28T00:07:14.820Z,101342.31
2023-04-28T00:09:42.074Z,101346.53
2023-04-28T00:12:09.148Z,101334.53
2023-04-28T00:14:36.307Z,101337.06
2023-04-28T00:17:03.531Z,101323.19
2023-04-28T00:19:30.847Z,101328.53
2023-04-28T00:21:58.037Z,101308.38
2023-04-28T00:24:25.408Z,101313.75
2023-04-28T00:26:52.625Z,101309.09
2023-04-28T00:29:19.721Z,101308.19
2023-04-28T00:31:47.167Z,101300.50
2023-04-28T00:34:15.564Z,101298.81
2023-04-28T00:36:42.814Z,101296.16
2023-04-28T00:39:10.148Z,101277.09
2023-04-28T00:41:37.289Z,101275.47
2023-04-28T00:44:04.564Z,101277.22
2023-04-28T00:46:33.461Z,101283.22
2023-04-28T00:49:00.535Z,101272.84
2023-04-28T00:51:29.174Z,101275.44
2023-04-28T00:53:57.400Z,101276.22
2023-04-28T00:56:24.538Z,101277.09
2023-04-28T00:58:51.704Z,101281.28
2023-04-28T01:01:19.262Z,101274.34
2023-04-28T01:03:47.320Z,101274.22
2023-04-28T01:06:15.185Z,101273.41
2023-04-28T01:08:42.623Z,101261.28
2023-04-28T01:11:14.438Z,101265.69
2023-04-28T01:13:41.657Z,101267.41
2023-04-28T01:16:08.906Z,101263.06
2023-04-28T01:18:36.181Z,101256.91
2023-04-28T01:21:04.558Z,101255.16
2023-04-28T01:23:31.817Z,101259.47
2023-04-28T01:25:58.905Z,101255.13
2023-04-28T01:28:26.197Z,101248.31
2023-04-28T01:30:53.293Z,101236.03
2023-04-28T01:33:20.602Z,101250.00
2023-04-28T01:35:47.703Z,101243.03
2023-04-28T01:38:14.756Z,101242.19
2023-04-28T01:40:41.855Z,101239.44
2023-04-28T01:43:10.239Z,101228.28
2023-04-28T01:45:37.531Z,101228.00
2023-04-28T01:48:04.825Z,101221.94
2023-04-28T01:50:32.093Z,101215.09
2023-04-28T01:52:59.134Z,101215.25
2023-04-28T01:55:26.605Z,101209.19
2023-04-28T01:57:53.684Z,101206.41
2023-04-28T02:00:20.953Z,101218.47
2023-04-28T02:02:48.103Z,101213.47
2023-04-28T02:05:15.335Z,101202.97
2023-04-28T02:07:42.364Z,101208.28
2023-04-28T02:10:09.971Z,101202.16
2023-04-28T02:12:37.077Z,101210.00
2023-04-28T02:15:04.690Z,101192.44
2023-04-28T02:17:31.864Z,101198.69
2023-04-28T02:19:58.945Z,101214.19
2023-04-28T02:22:26.194Z,101202.19
2023-04-28T02:24:53.322Z,101187.47
2023-04-28T02:27:21.393Z,101183.06
2023-04-28T02:29:48.897Z,101186.59
2023-04-28T02:32:16.127Z,101171.09
2023-04-28T02:34:43.310Z,101170.91
2023-04-28T02:37:10.460Z,101166.69
2023-04-28T02:39:37.706Z,101164.97
2023-04-28T02:42:05.827Z,101172.72
2023-04-28T02:44:32.939Z,101165.06
2023-04-28T02:47:00.673Z,101145.06
2023-04-28T02:49:27.890Z,101162.53
2023-04-28T02:51:55.436Z,101141.69
2023-04-28T02:54:27.771Z,101153.72
2023-04-28T02:56:56.070Z,101142.63
2023-04-28T02:59:24.392Z,101140.88
2023-04-28T03:01:54.612Z,101135.63
2023-04-28T03:04:22.090Z,101128.69
2023-04-28T03:06:49.625Z,101115.69
2023-04-28T03:09:16.761Z,101107.75
2023-04-28T03:11:43.889Z,101114.75
2023-04-28T03:14:11.214Z,101116.38
2023-04-28T03:16:38.706Z,101099.75
2023-04-28T03:19:05.876Z,101106.88
2023-04-28T03:21:32.980Z,101099.97
2023-04-28T03:24:00.012Z,101101.88
2023-04-28T03:26:27.014Z,101100.00
2023-04-28T03:28:54.933Z,101097.38
2023-04-28T03:31:22.064Z,101101.72
2023-04-28T03:33:49.115Z,101080.00
2023-04-28T03:36:16.578Z,101093.19
2023-04-28T03:38:44.038Z,101101.84
2023-04-28T03:41:11.399Z,101097.50
2023-04-28T03:43:38.570Z,101084.53
2023-04-28T03:46:05.703Z,101075.06
2023-04-28T03:48:33.168Z,101070.88
2023-04-28T03:51:00.374Z,101063.97
2023-04-28T03:53:27.544Z,101058.63
2023-04-28T03:55:54.866Z,101057.81
2023-04-28T03:58:22.098Z,101065.56
2023-04-28T04:00:49.248Z,101061.91
2023-04-28T04:03:16.508Z,101062.88
2023-04-28T04:05:44.197Z,101069.66
2023-04-28T04:08:11.796Z,101061.78
2023-04-28T04:10:38.872Z,101065.19
2023-04-28T04:13:06.001Z,101060.78
2023-04-28T04:15:33.174Z,101051.19
2023-04-28T04:18:00.664Z,101053.06
2023-04-28T04:20:28.150Z,101051.38
2023-04-28T04:22:55.645Z,101048.69
2023-04-28T04:25:23.453Z,101032.28
2023-04-28T04:27:50.619Z,101032.09
2023-04-28T04:30:18.044Z,101034.72
2023-04-28T04:32:45.252Z,101032.81
2023-04-28T04:35:12.677Z,101040.00
2023-04-28T04:37:40.115Z,101027.09
2023-04-28T04:40:07.949Z,101033.25
2023-04-28T04:42:35.519Z,101016.66
2023-04-28T04:45:02.675Z,101018.72
2023-04-28T04:47:29.887Z,101021.38
2023-04-28T04:49:57.276Z,101015.31
2023-04-28T04:52:24.926Z,101002.41
2023-04-28T04:54:52.142Z,100998.22
2023-04-28T04:57:19.222Z,101013.03
2023-04-28T04:59:46.803Z,101019.09
2023-04-28T05:02:13.991Z,101004.47
2023-04-28T05:04:41.451Z,101010.59
2023-04-28T05:07:08.763Z,101008.94
2023-04-28T05:09:35.899Z,101007.25
2023-04-28T05:12:03.032Z,101009.84
2023-04-28T05:14:30.262Z,100997.63
2023-04-28T05:16:57.500Z,101015.75
2023-04-28T05:19:25.334Z,101011.63
2023-04-28T05:21:55.170Z,101011.69
2023-04-28T05:24:25.341Z,101014.22
2023-04-28T05:26:54.151Z,101015.19
2023-04-28T05:29:21.938Z,101007.44
2023-04-28T05:31:49.132Z,101008.25
2023-04-28T05:34:17.123Z,101000.59
2023-04-28T05:36:44.730Z,101003.25
2023-04-28T05:39:11.859Z,101000.72
2023-04-28T05:41:39.904Z,101013.56
2023-04-28T05:44:07.085Z,101007.59
2023-04-28T05:46:34.815Z,101016.25
2023-04-28T05:49:01.940Z,101018.88
2023-04-28T05:51:29.064Z,101017.94
2023-04-28T05:53:56.681Z,101009.31
2023-04-28T05:56:24.171Z,101010.94
2023-04-28T05:58:51.327Z,100996.97
2023-04-28T06:01:18.422Z,101014.34
2023-04-28T06:03:45.732Z,101011.78
2023-04-28T06:06:13.227Z,101006.44
2023-04-28T06:08:40.922Z,101015.91
2023-04-28T06:11:08.055Z,101003.75
2023-04-28T06:13:35.437Z,100998.28
2023-04-28T06:16:02.787Z,100983.47
2023-04-28T06:18:32.946Z,100986.88
2023-04-28T06:21:01.865Z,100983.22
2023-04-28T06:23:28.996Z,100968.56
2023-04-28T06:25:56.252Z,100964.22
2023-04-28T06:28:23.453Z,100967.72
2023-04-28T06:30:51.074Z,100967.75
2023-04-28T06:33:18.331Z,100958.59
2023-04-28T06:35:45.489Z,100972.50
2023-04-28T06:38:12.544Z,100973.47
2023-04-28T06:40:40.734Z,100963.53
2023-04-28T06:43:07.860Z,100961.25
2023-04-28T06:45:35.100Z,100961.41
2023-04-28T06:48:02.589Z,100956.56
2023-04-28T06:50:30.023Z,100965.66
2023-04-28T06:52:58.683Z,100969.31
2023-04-28T06:55:26.912Z,100967.19
2023-04-28T06:57:54.088Z,100960.41
2023-04-28T07:00:21.388Z,100964.06
2023-04-28T07:02:48.697Z,100958.97
2023-04-28T07:05:16.699Z,100958.41
2023-04-28T07:07:44.185Z,100946.38
2023-04-28T07:10:11.582Z,100944.91
2023-04-28T07:12:38.762Z,100935.34
2023-04-28T07:15:06.586Z,100948.63
2023-04-28T07:17:34.034Z,100947.88
2023-04-28T07:20:01.431Z,100941.81
2023-04-28T07:22:28.541Z,100951.19
2023-04-28T07:27:21.531Z,100950.66
2023-04-28T07:29:48.712Z,100958.47
2023-04-28T07:34:54.420Z,100958.88
2023-04-28T07:37:21.571Z,100947.00
2023-04-28T07:39:48.850Z,100941.91
2023-04-28T07:42:16.012Z,100957.75
2023-04-28T07:44:43.145Z,100955.44
2023-04-28T07:47:10.687Z,100947.72
2023-04-28T07:49:37.857Z,100953.09
2023-04-28T07:52:05.209Z,100944.47
2023-04-28T07:54:32.369Z,100932.44
2023-04-28T07:56:59.406Z,100936.03
2023-04-28T07:59:26.870Z,100930.00
2023-04-28T08:01:54.240Z,100932.91
2023-04-28T08:04:21.775Z,100929.44
2023-04-28T08:06:49.621Z,100942.50
2023-04-28T08:09:17.070Z,100931.47
2023-04-28T08:11:44.226Z,100930.63
2023-04-28T08:14:11.369Z,100916.78
2023-04-28T08:16:41.251Z,100927.31
2023-04-28T08:19:08.690Z,100920.41
2023-04-28T08:21:36.330Z,100926.59
2023-04-28T08:24:03.630Z,100932.75
2023-04-28T08:26:31.283Z,100926.66
2023-04-28T08:28:58.395Z,100924.13
2023-04-28T08:31:25.682Z,100944.09
2023-04-28T08:33:54.864Z,100937.84
2023-04-28T08:36:29.097Z,100944.81
2023-04-28T08:38:59.258Z,100934.34
2023-04-28T08:41:27.815Z,100930.03
2023-04-28T08:43:55.588Z,100934.34
2023-04-28T08:46:24.282Z,100932.69
2023-04-28T08:48:54.204Z,100937.06
2023-04-28T08:51:40.868Z,100933.63
2023-04-28T08:54:25.498Z,100931.91
2023-04-28T08:56:57.031Z,100927.59
2023-04-28T08:59:24.417Z,100931.19
2023-04-28T09:01:52.151Z,100932.22
2023-04-28T09:04:20.797Z,100926.19
2023-04-28T09:06:49.010Z,100925.34
2023-04-28T09:09:32.666Z,100924.56
2023-04-28T09:12:03.110Z,100927.16
2023-04-28T09:14:33.034Z,100920.19
2023-04-28T09:17:01.480Z,100912.28
2023-04-28T09:19:37.333Z,100907.06
2023-04-28T09:22:21.973Z,100913.28
2023-04-28T09:24:55.404Z,100914.16
2023-04-28T09:27:29.261Z,100910.66
2023-04-28T09:29:56.515Z,100914.09
2023-04-28T09:32:24.807Z,100916.66
2023-04-28T09:34:57.223Z,100914.94
2023-04-28T09:37:31.807Z,100920.03
2023-04-28T09:40:05.820Z,100906.13
2023-04-28T09:42:34.748Z,100922.56
2023-04-28T09:45:06.891Z,100915.75
2023-04-28T09:47:36.706Z,100920.94
2023-04-28T09:50:07.065Z,100906.25
2023-04-28T09:52:35.029Z,100904.66
2023-04-28T09:55:04.408Z,100903.03
2023-04-28T09:57:32.769Z,100900.41
2023-04-28T10:00:00.633Z,100894.47
2023-04-28T10:04:58.918Z,100903.25
2023-04-28T10:07:27.291Z,100886.91
2023-04-28T10:09:56.403Z,100889.53
2023-04-28T10:12:24.601Z,100895.53
2023-04-28T10:14:55.495Z,100886.81
2023-04-28T10:17:25.602Z,100890.31
2023-04-28T10:19:54.473Z,100889.41
2023-04-28T10:22:57.629Z,100886.81
2023-04-28T10:25:31.249Z,100885.09
2023-04-28T10:28:00.329Z,100889.44
2023-04-28T10:30:31.309Z,100897.22
2023-04-28T10:33:13.669Z,100892.94
2023-04-28T10:35:44.326Z,100897.28
2023-04-28T10:38:24.552Z,100894.66
2023-04-28T10:40:56.511Z,100894.69
2023-04-28T10:43:29.542Z,100898.19
2023-04-28T10:46:01.073Z,100890.41
2023-04-28T10:48:34.884Z,100893.88
2023-04-28T10:51:09.495Z,100892.13
2023-04-28T10:53:42.437Z,100895.63
2023-04-28T10:56:15.402Z,100901.72
2023-04-28T10:58:45.972Z,100887.84
2023-04-28T11:01:19.063Z,100895.63
2023-04-28T11:03:47.158Z,100891.41
2023-04-28T11:06:41.319Z,100889.66
2023-04-28T11:09:20.225Z,100892.34
2023-04-28T11:12:03.648Z,100891.56
2023-04-28T11:14:43.250Z,100878.47
2023-04-28T11:17:13.502Z,100888.97
2023-04-28T11:19:43.603Z,100889.88
2023-04-28T11:22:16.298Z,100870.78
2023-04-28T11:24:59.589Z,100880.41
2023-04-28T11:27:28.074Z,100881.28
2023-04-28T11:29:55.858Z,100862.16
2023-04-28T11:32:34.110Z,100877.84
2023-04-28T11:35:01.988Z,100866.59
2023-04-28T11:37:29.062Z,100883.06
2023-04-28T11:39:57.324Z,100874.34
2023-04-28T11:42:27.118Z,100877.88
2023-04-28T11:44:55.292Z,100880.53
2023-04-28T11:47:33.497Z,100870.97
2023-04-28T11:50:02.036Z,100877.91
2023-04-28T11:52:29.365Z,100873.63
2023-04-28T11:54:59.854Z,100869.28
2023-04-28T11:57:27.637Z,100873.59
2023-04-28T12:00:14.372Z,100877.03
2023-04-28T12:02:42.213Z,100888.28
2023-04-28T12:05:10.819Z,100884.84
2023-04-28T12:07:45.307Z,100877.88
2023-04-28T12:10:17.538Z,100888.34
2023-04-28T12:12:52.089Z,100888.31
2023-04-28T12:15:22.154Z,100885.75
2023-04-28T12:17:51.145Z,100880.56
2023-04-28T12:20:38.861Z,100889.25
2023-04-28T12:23:08.030Z,100887.44
2023-04-28T12:25:44.023Z,100886.50
2023-04-28T12:28:11.297Z,100888.25
2023-04-28T12:30:44.536Z,100882.19
2023-04-28T12:33:29.118Z,100887.34
2023-04-28T12:35:57.523Z,100895.19
2023-04-28T12:38:25.439Z,100896.06
2023-04-28T12:40:53.378Z,100891.75
2023-04-28T12:43:23.414Z,100892.50
2023-04-28T12:45:53.576Z,100894.25
2023-04-28T12:48:24.270Z,100886.44
2023-04-28T12:50:52.124Z,100893.34
2023-04-28T12:53:19.441Z,100887.31
2023-04-28T12:55:46.509Z,100889.16
2023-04-28T12:58:13.665Z,100888.25
2023-04-28T13:00:41.958Z,100887.31
2023-04-28T13:03:09.758Z,100887.31
2023-04-28T13:05:37.114Z,100895.97
2023-04-28T13:08:04.890Z,100896.88
2023-04-28T13:10:32.057Z,100890.84
2023-04-28T13:12:59.115Z,100879.56
2023-04-28T13:15:27.201Z,100893.50
2023-04-28T13:17:56.763Z,100889.19
2023-04-28T13:20:24.327Z,100895.25
2023-04-28T13:22:52.214Z,100889.19
2023-04-28T13:25:19.332Z,100891.81
2023-04-28T13:27:47.236Z,100896.19
2023-04-28T13:30:14.406Z,100897.06
2023-04-28T13:32:41.504Z,100897.94
2023-04-28T13:35:09.508Z,100895.31
2023-04-28T13:37:42.564Z,100900.59
2023-04-28T13:40:09.958Z,100903.16
2023-04-28T13:42:37.059Z,100901.44
2023-04-28T13:45:04.432Z,100909.22
2023-04-28T13:47:32.509Z,100888.31
2023-04-28T13:50:00.473Z,100903.94
2023-04-28T13:52:27.618Z,100907.34
2023-04-28T13:54:55.264Z,100902.13
2023-04-28T13:57:23.038Z,100891.69
2023-04-28T13:59:50.140Z,100905.66
2023-04-28T14:02:17.459Z,100902.22
2023-04-28T14:04:49.112Z,100904.81
2023-04-28T14:07:17.242Z,100906.47
2023-04-28T14:09:44.562Z,100904.72
2023-04-28T14:12:12.286Z,100909.91
2023-04-28T14:14:40.354Z,100905.44
2023-04-28T14:17:07.588Z,100918.47
2023-04-28T14:19:34.827Z,100903.56
2023-04-28T14:22:02.563Z,100906.25
2023-04-28T14:24:29.694Z,100903.59
2023-04-28T14:26:56.962Z,100914.03
2023-04-28T14:29:24.149Z,100901.91
2023-04-28T14:31:51.665Z,100914.81
2023-04-28T14:34:19.060Z,100909.72
2023-04-28T14:36:48.035Z,100907.09
2023-04-28T14:39:15.155Z,100921.91
2023-04-28T14:41:42.253Z,100907.13
2023-04-28T14:44:09.509Z,100923.66
2023-04-28T14:46:37.113Z,100921.81
2023-04-28T14:49:05.957Z,100916.59
2023-04-28T14:51:33.116Z,100925.34
2023-04-28T14:54:00.457Z,100927.91
2023-04-28T14:56:27.536Z,100928.72
2023-04-28T14:58:55.179Z,100922.69
2023-04-28T15:01:22.383Z,100922.63
2023-04-28T15:03:49.804Z,100913.13
2023-04-28T15:06:17.160Z,100918.44
2023-04-28T15:08:44.268Z,100919.28
2023-04-28T15:11:11.769Z,100927.03
2023-04-28T15:13:40.014Z,100915.72
2023-04-28T15:16:09.784Z,100924.28
2023-04-28T15:18:36.973Z,100926.06
2023-04-28T15:21:04.285Z,100927.81
2023-04-28T15:23:31.608Z,100941.56
2023-04-28T15:25:58.719Z,100938.13
2023-04-28T15:28:27.630Z,100928.56
2023-04-28T15:30:55.407Z,100921.63
2023-04-28T15:33:24.284Z,100939.97
2023-04-28T15:35:51.362Z,100936.47
2023-04-28T15:38:18.508Z,100937.22
2023-04-28T15:40:46.166Z,100945.13
2023-04-28T15:43:13.438Z,100945.16
2023-04-28T15:45:40.606Z,100933.97
2023-04-28T15:48:10.568Z,100939.16
2023-04-28T15:50:37.771Z,100942.47
2023-04-28T15:53:04.863Z,100953.69
2023-04-28T15:55:32.101Z,100940.66
2023-04-28T15:57:59.422Z,100955.31
2023-04-28T16:00:26.568Z,100961.31
2023-04-28T16:02:53.983Z,100949.19
2023-04-28T16:05:21.823Z,100959.56
2023-04-28T16:07:49.901Z,100954.44
2023-04-28T16:10:17.307Z,100958.88
2023-04-28T16:12:44.702Z,100959.66
2023-04-28T16:15:13.229Z,100960.47
2023-04-28T16:17:41.679Z,100952.78
2023-04-28T16:20:10.179Z,100964.88
2023-04-28T16:22:38.950Z,100964.81
2023-04-28T16:25:06.986Z,100971.75
2023-04-28T16:27:35.604Z,100973.53
2023-04-28T16:30:06.281Z,100977.00
2023-04-28T16:32:36.405Z,100978.72
2023-04-28T16:35:06.165Z,100979.56
2023-04-28T16:37:33.338Z,100976.06
2023-04-28T16:40:00.682Z,100976.06
2023-04-28T16:42:27.748Z,100979.63
2023-04-28T16:44:55.391Z,100985.72
2023-04-28T16:47:22.581Z,100984.84
2023-04-28T16:49:49.830Z,100985.72
2023-04-28T16:52:17.188Z,100981.41
2023-04-28T16:54:44.303Z,100985.66
2023-04-28T16:57:11.543Z,100986.56
2023-04-28T16:59:38.628Z,100984.59
2023-04-28T17:02:06.656Z,100983.75
2023-04-28T17:04:34.449Z,100983.72
2023-04-28T17:07:04.527Z,100997.59
2023-04-28T17:09:33.281Z,100988.09
2023-04-28T17:12:01.015Z,100997.66
2023-04-28T17:14:28.203Z,100995.00
2023-04-28T17:16:58.424Z,101014.00
2023-04-28T17:19:26.057Z,101011.28
2023-04-28T17:21:55.488Z,101002.59
2023-04-28T17:24:23.675Z,101007.66
2023-04-28T17:26:52.152Z,101007.53
2023-04-28T17:29:19.314Z,101005.84
2023-04-28T17:31:47.191Z,101005.81
2023-04-28T17:34:14.352Z,101017.00
2023-04-28T17:36:42.198Z,101018.00
2023-04-28T17:39:09.709Z,101023.03
2023-04-28T17:41:36.927Z,101020.56
2023-04-28T17:44:04.091Z,101023.94
2023-04-28T17:46:32.338Z,101035.13
2023-04-28T17:49:00.548Z,101022.78
2023-04-28T17:51:27.943Z,101033.16
2023-04-28T17:53:58.717Z,101029.59
2023-04-28T17:56:26.357Z,101035.75
2023-04-28T17:58:53.560Z,101034.84
2023-04-28T18:01:20.687Z,101041.03
2023-04-28T18:03:54.101Z,101033.84
2023-04-28T18:06:24.837Z,101043.44
2023-04-28T18:08:52.825Z,101049.44
2023-04-28T18:11:19.878Z,101048.53
2023-04-28T18:13:47.236Z,101039.75
2023-04-28T18:16:15.057Z,101051.88
2023-04-28T18:18:42.262Z,101038.13
2023-04-28T18:21:09.708Z,101052.84
2023-04-28T18:23:36.863Z,101038.13
2023-04-28T18:26:04.006Z,101064.09
2023-04-28T18:28:31.196Z,101055.53
2023-04-28T18:30:58.280Z,101057.06
2023-04-28T18:33:28.499Z,101053.72
2023-04-28T18:36:00.578Z,101055.53
2023-04-28T18:38:27.763Z,101055.31
2023-04-28T18:40:55.399Z,101059.66
2023-04-28T18:43:24.221Z,101068.44
2023-04-28T18:45:51.867Z,101065.06
2023-04-28T18:48:19.384Z,101062.41
2023-04-28T18:50:48.695Z,101070.09
2023-04-28T18:53:18.502Z,101062.16
2023-04-28T18:55:45.663Z,101074.38
2023-04-28T18:58:14.977Z,101067.44
2023-04-28T19:00:45.590Z,101072.41
2023-04-28T19:03:13.710Z,101067.34
2023-04-28T19:05:45.185Z,101073.38
2023-04-28T19:08:12.410Z,101082.00
2023-04-28T19:10:39.647Z,101076.81
2023-04-28T19:13:07.029Z,101087.94
2023-04-28T19:15:34.141Z,101089.31
2023-04-28T19:18:02.296Z,101089.25
2023-04-28T19:20:29.494Z,101103.19
2023-04-28T19:22:56.941Z,101104.03
2023-04-28T19:25:25.298Z,101115.38
2023-04-28T19:27:52.368Z,101116.00
2023-04-28T19:30:19.447Z,101122.13
2023-04-28T19:32:46.577Z,101129.81
2023-04-28T19:35:14.560Z,101124.63
2023-04-28T19:37:41.896Z,101142.75
2023-04-28T19:40:09.708Z,101131.22
2023-04-28T19:42:36.800Z,101146.94
2023-04-28T19:45:04.284Z,101145.19
2023-04-28T19:47:34.696Z,101158.03
2023-04-28T19:50:02.197Z,101150.44
2023-04-28T19:52:29.986Z,101148.69
2023-04-28T19:54:57.320Z,101150.25
2023-04-28T19:57:24.982Z,101161.47
2023-04-28T19:59:52.760Z,101156.25
2023-04-28T20:02:21.062Z,101156.38
2023-04-28T20:04:49.732Z,101162.47
2023-04-28T20:07:16.976Z,101166.72
2023-04-28T20:09:45.010Z,101178.59
2023-04-28T20:12:12.182Z,101176.81
2023-04-28T20:14:39.331Z,101183.47
2023-04-28T20:17:09.028Z,101183.44
2023-04-28T20:19:36.903Z,101190.09
2023-04-28T20:22:07.727Z,101186.53
2023-04-28T20:24:36.361Z,101196.16
2023-04-28T20:27:04.252Z,101190.88
2023-04-28T20:29:35.005Z,101193.63
2023-04-28T20:32:03.239Z,101194.31
2023-04-28T20:34:31.843Z,101193.50
2023-04-28T20:36:59.760Z,101191.63
2023-04-28T20:39:26.844Z,101193.88
2023-04-28T20:41:53.966Z,101205.09
2023-04-28T20:44:21.067Z,101216.47
2023-04-28T20:46:48.294Z,101222.03
2023-04-28T20:49:15.383Z,101220.56
2023-04-28T20:51:45.168Z,101230.78
2023-04-28T20:54:13.013Z,101237.78
2023-04-28T20:56:41.995Z,101234.44
2023-04-28T20:59:09.232Z,101231.75
2023-04-28T21:01:36.330Z,101246.25
2023-04-28T21:04:03.597Z,101242.78
2023-04-28T21:06:30.899Z,101251.28
2023-04-28T21:08:57.965Z,101240.47
2023-04-28T21:11:25.651Z,101253.63
2023-04-28T21:13:53.585Z,101253.47
2023-04-28T21:16:21.719Z,101250.94
2023-04-28T21:18:52.394Z,101265.59
2023-04-28T21:21:19.526Z,101263.72
2023-04-28T21:23:47.052Z,101266.31
2023-04-28T21:26:14.117Z,101247.94
2023-04-28T21:28:41.725Z,101264.03
2023-04-28T21:31:09.847Z,101260.06
2023-04-28T21:33:37.278Z,101263.19
2023-04-28T21:36:07.857Z,101268.47
2023-04-28T21:38:38.950Z,101269.19
2023-04-28T21:41:07.525Z,101268.22
2023-04-28T21:43:34.979Z,101273.63
2023-04-28T21:46:02.291Z,101281.06
2023-04-28T21:48:29.456Z,101274.91
2023-04-28T21:50:56.862Z,101286.31
2023-04-28T21:53:23.978Z,101286.31
2023-04-28T21:55:51.031Z,101296.53
2023-04-28T21:58:18.400Z,101291.09
2023-04-28T22:00:48.549Z,101283.06
2023-04-28T22:03:16.392Z,101284.50
2023-04-28T22:05:44.866Z,101290.41
2023-04-28T22:08:12.854Z,101288.69
2023-04-28T22:10:40.353Z,101301.72
2023-04-28T22:13:07.459Z,101285.38
2023-04-28T22:15:34.679Z,101300.03
2023-04-28T22:18:02.033Z,101304.97
2023-04-28T22:20:29.347Z,101309.38
2023-04-28T22:22:57.647Z,101291.41
2023-04-28T22:25:25.377Z,101303.63
2023-04-28T22:27:52.715Z,101303.44
2023-04-28T22:30:19.910Z,101303.50
2023-04-28T22:32:47.579Z,101295.81
2023-04-28T22:35:16.637Z,101309.31
2023-04-28T22:37:44.211Z,101306.44
2023-04-28T22:40:11.716Z,101305.53
2023-04-28T22:42:40.380Z,101309.97
2023-04-28T22:45:10.058Z,101313.59
2023-04-28T22:47:39.129Z,101314.50
2023-04-28T22:50:10.754Z,101313.69
2023-04-28T22:52:37.860Z,101318.84
2023-04-28T22:55:06.525Z,101317.94
2023-04-28T22:57:33.905Z,101322.22
2023-04-28T23:00:01.299Z,101320.22
2023-04-28T23:02:28.812Z,101325.53
2023-04-28T23:04:56.818Z,101328.13
2023-04-28T23:07:24.841Z,101323.66
2023-04-28T23:09:53.205Z,101322.03
2023-04-28T23:12:23.864Z,101318.34
2023-04-28T23:14:51.141Z,101324.63
2023-04-28T23:17:18.472Z,101335.03
2023-04-28T23:19:45.612Z,101332.59
2023-04-28T23:22:13.122Z,101335.38
2023-04-28T23:24:40.507Z,101328.25
2023-04-28T23:27:07.809Z,101339.81
2023-04-28T23:29:35.877Z,101339.66
2023-04-28T23:32:04.026Z,101351.03
2023-04-28T23:34:33.847Z,101354.66
2023-04-28T23:37:01.137Z,101350.47
2023-04-28T23:39:30.184Z,101363.00
2023-04-28T23:41:58.910Z,101349.06
2023-04-28T23:44:26.174Z,101345.38
2023-04-28T23:46:56.215Z,101367.75
2023-04-28T23:49:23.916Z,101356.31
2023-04-28T23:51:51.092Z,101365.16
2023-04-28T23:54:18.220Z,101374.47
2023-04-28T23:56:45.393Z,101377.44
2023-04-28T23:59:12.614Z,101373.91
